Berkey, Ohio
Current Conditions -  °F | °C
As of 8:52 AM on Thursday 30 Oct 2014 (Local Time) from KTOL Reporting Station
Clear Clear  
Wind Chill: 33°   Ceiling: Unl
Heat Index: 33°   Visibility: 10mi
Dew Point: 31°   Wind: 3mph
Humidity: 92%   Direction: 240°WSW
Pressure: 30.14"   Gusts: NA
Location:  41.72°N, 83.84°W
Report Text: KTOL 301252Z AUTO 24003KT 10SM CLR 01/M01 A3014 RMK AO2 SLP213 T00061006
Loading
Personal Weather Stations






























Interactive Weather Map
Tropical Storm Tracking
New forecast layout! Learn more

10-Day Weather Forecast

Advertisements
Track Severe Weather on mobile